sensor_id;sensor_type;location;lat;lon;timestamp;temperature;humidity
66610;DHT22;53468;48.276;14.416;2023-04-15T07:04:48;5.70;99.90
66610;DHT22;53468;48.276;14.416;2023-04-15T08:58:22;6.10;99.90
66610;DHT22;53468;48.276;14.416;2023-04-15T09:03:48;6.10;99.90
66610;DHT22;53468;48.276;14.416;2023-04-15T09:09:32;6.10;99.90
66610;DHT22;53468;48.276;14.416;2023-04-15T09:32:54;6.50;99.90
66610;DHT22;53468;48.276;14.416;2023-04-15T09:38:20;6.60;99.90
66610;DHT22;53468;48.276;14.416;2023-04-15T09:44:03;6.50;99.90
66610;DHT22;53468;48.276;14.416;2023-04-15T09:49:35;6.40;99.90
66610;DHT22;53468;48.276;14.416;2023-04-15T10:19:35;6.50;99.90
66610;DHT22;53468;48.276;14.416;2023-04-15T10:25:15;6.60;99.90
66610;DHT22;53468;48.276;14.416;2023-04-15T10:31:24;6.50;99.90
66610;DHT22;53468;48.276;14.416;2023-04-15T10:37:11;6.60;99.90
66610;DHT22;53468;48.276;14.416;2023-04-15T10:42:20;6.50;99.90
66610;DHT22;53468;48.276;14.416;2023-04-15T10:48:06;6.60;99.90
66610;DHT22;53468;48.276;14.416;2023-04-15T10:53:10;6.50;99.90
66610;DHT22;53468;48.276;14.416;2023-04-15T10:58:14;6.60;99.90
66610;DHT22;53468;48.276;14.416;2023-04-15T11:03:39;6.70;99.90
66610;DHT22;53468;48.276;14.416;2023-04-15T11:14:42;6.80;99.90
66610;DHT22;53468;48.276;14.416;2023-04-15T11:19:52;6.90;99.90
66610;DHT22;53468;48.276;14.416;2023-04-15T11:24:54;6.90;99.90
66610;DHT22;53468;48.276;14.416;2023-04-15T11:29:58;6.90;99.90
66610;DHT22;53468;48.276;14.416;2023-04-15T11:35:06;7.00;99.90
66610;DHT22;53468;48.276;14.416;2023-04-15T11:40:11;7.00;99.90
66610;DHT22;53468;48.276;14.416;2023-04-15T11:45:15;6.90;99.90
66610;DHT22;53468;48.276;14.416;2023-04-15T11:50:22;6.90;99.90
66610;DHT22;53468;48.276;14.416;2023-04-15T11:55:26;6.90;99.90
66610;DHT22;53468;48.276;14.416;2023-04-15T12:00:52;6.90;99.90
66610;DHT22;53468;48.276;14.416;2023-04-15T12:06:13;7.00;99.90
66610;DHT22;53468;48.276;14.416;2023-04-15T12:11:26;7.10;99.90
66610;DHT22;53468;48.276;14.416;2023-04-15T12:16:30;7.00;99.90
66610;DHT22;53468;48.276;14.416;2023-04-15T12:21:39;7.00;99.90
66610;DHT22;53468;48.276;14.416;2023-04-15T12:27:00;7.10;99.90
66610;DHT22;53468;48.276;14.416;2023-04-15T12:32:05;7.00;99.90
66610;DHT22;53468;48.276;14.416;2023-04-15T12:37:20;7.00;99.90
66610;DHT22;53468;48.276;14.416;2023-04-15T12:42:23;7.10;99.90
66610;DHT22;53468;48.276;14.416;2023-04-15T12:47:34;7.20;99.90
66610;DHT22;53468;48.276;14.416;2023-04-15T12:52:42;7.10;99.90
66610;DHT22;53468;48.276;14.416;2023-04-15T12:57:48;7.10;99.90
66610;DHT22;53468;48.276;14.416;2023-04-15T13:02:57;7.10;99.90
66610;DHT22;53468;48.276;14.416;2023-04-15T13:08:11;7.20;99.90
66610;DHT22;53468;48.276;14.416;2023-04-15T13:13:28;7.20;99.90
66610;DHT22;53468;48.276;14.416;2023-04-15T13:18:43;7.20;99.90
66610;DHT22;53468;48.276;14.416;2023-04-15T13:24:43;7.40;99.90
66610;DHT22;53468;48.276;14.416;2023-04-15T13:29:55;7.40;99.90
66610;DHT22;53468;48.276;14.416;2023-04-15T13:35:26;7.60;99.90
66610;DHT22;53468;48.276;14.416;2023-04-15T13:40:53;7.70;99.90
66610;DHT22;53468;48.276;14.416;2023-04-15T13:46:27;7.70;99.90
66610;DHT22;53468;48.276;14.416;2023-04-15T13:56:56;7.80;99.90
66610;DHT22;53468;48.276;14.416;2023-04-15T14:02:00;7.90;99.90
66610;DHT22;53468;48.276;14.416;2023-04-15T14:07:04;7.80;99.90
66610;DHT22;53468;48.276;14.416;2023-04-15T14:12:17;8.00;99.90
66610;DHT22;53468;48.276;14.416;2023-04-15T14:17:30;7.90;99.90
66610;DHT22;53468;48.276;14.416;2023-04-15T14:23:03;7.90;99.90
66610;DHT22;53468;48.276;14.416;2023-04-15T14:34:17;8.00;99.90
66610;DHT22;53468;48.276;14.416;2023-04-15T14:39:26;8.10;99.90
66610;DHT22;53468;48.276;14.416;2023-04-15T14:44:29;7.90;99.90
66610;DHT22;53468;48.276;14.416;2023-04-15T14:55:36;8.00;99.90
66610;DHT22;53468;48.276;14.416;2023-04-15T15:01:09;8.10;99.90
66610;DHT22;53468;48.276;14.416;2023-04-15T15:07:03;8.00;99.90
66610;DHT22;53468;48.276;14.416;2023-04-15T15:12:43;8.00;99.90
66610;DHT22;53468;48.276;14.416;2023-04-15T15:18:04;8.10;99.90
66610;DHT22;53468;48.276;14.416;2023-04-15T15:24:08;8.00;99.90
66610;DHT22;53468;48.276;14.416;2023-04-15T15:30:02;8.00;99.90
66610;DHT22;53468;48.276;14.416;2023-04-15T15:35:32;8.10;99.90
66610;DHT22;53468;48.276;14.416;2023-04-15T15:46:59;8.00;99.90
66610;DHT22;53468;48.276;14.416;2023-04-15T15:52:05;8.10;99.90
66610;DHT22;53468;48.276;14.416;2023-04-15T15:57:13;8.20;99.90
66610;DHT22;53468;48.276;14.416;2023-04-15T16:02:27;8.20;99.90
66610;DHT22;53468;48.276;14.416;2023-04-15T16:07:56;8.20;99.90
66610;DHT22;53468;48.276;14.416;2023-04-15T16:13:10;8.30;99.90
66610;DHT22;53468;48.276;14.416;2023-04-15T16:18:40;8.30;99.90
66610;DHT22;53468;48.276;14.416;2023-04-15T16:24:06;8.30;99.90
66610;DHT22;53468;48.276;14.416;2023-04-15T16:29:54;8.30;99.90
66610;DHT22;53468;48.276;14.416;2023-04-15T16:35:23;8.30;99.90
66610;DHT22;53468;48.276;14.416;2023-04-15T16:40:39;8.30;99.90
66610;DHT22;53468;48.276;14.416;2023-04-15T16:45:53;8.30;99.90
66610;DHT22;53468;48.276;14.416;2023-04-15T16:52:05;8.20;99.90
66610;DHT22;53468;48.276;14.416;2023-04-15T17:03:26;8.10;99.90
66610;DHT22;53468;48.276;14.416;2023-04-15T17:57:04;7.50;99.90
66610;DHT22;53468;48.276;14.416;2023-04-15T18:14:33;7.30;99.90
66610;DHT22;53468;48.276;14.416;2023-04-15T18:38:18;7.10;99.90
66610;DHT22;53468;48.276;14.416;2023-04-15T18:43:25;7.10;99.90
66610;DHT22;53468;48.276;14.416;2023-04-15T18:48:32;7.10;99.90
66610;DHT22;53468;48.276;14.416;2023-04-15T18:54:58;7.10;99.90
66610;DHT22;53468;48.276;14.416;2023-04-15T19:06:33;7.00;99.90
66610;DHT22;53468;48.276;14.416;2023-04-15T21:24:46;6.90;99.90
66610;DHT22;53468;48.276;14.416;2023-04-15T21:30:12;6.90;99.90
66610;DHT22;53468;48.276;14.416;2023-04-15T21:36:18;6.90;99.90
